sensor_id;sensor_type;location;lat;lon;timestamp;P1;durP1;ratioP1;P2;durP2;ratioP2
4758;SDS011;2393;50.560;12.636;2024-03-23T00:54:01;6.50;;;4.17;;
4758;SDS011;2393;50.560;12.636;2024-03-23T00:56:28;8.53;;;3.93;;
4758;SDS011;2393;50.560;12.636;2024-03-23T00:58:54;6.00;;;3.90;;
4758;SDS011;2393;50.560;12.636;2024-03-23T01:01:21;10.27;;;3.33;;
4758;SDS011;2393;50.560;12.636;2024-03-23T01:03:47;3.47;;;3.17;;
4758;SDS011;2393;50.560;12.636;2024-03-23T01:06:14;7.63;;;3.67;;
4758;SDS011;2393;50.560;12.636;2024-03-23T01:08:41;4.93;;;3.50;;
4758;SDS011;2393;50.560;12.636;2024-03-23T01:11:09;4.27;;;3.57;;
4758;SDS011;2393;50.560;12.636;2024-03-23T01:13:35;6.13;;;3.73;;
4758;SDS011;2393;50.560;12.636;2024-03-23T01:16:02;6.20;;;3.30;;
4758;SDS011;2393;50.560;12.636;2024-03-23T01:18:29;6.77;;;4.10;;
4758;SDS011;2393;50.560;12.636;2024-03-23T01:20:56;9.80;;;4.60;;
4758;SDS011;2393;50.560;12.636;2024-03-23T01:23:22;4.40;;;3.77;;
4758;SDS011;2393;50.560;12.636;2024-03-23T01:25:52;4.17;;;3.77;;
4758;SDS011;2393;50.560;12.636;2024-03-23T01:28:20;10.83;;;4.33;;
4758;SDS011;2393;50.560;12.636;2024-03-23T01:30:49;5.00;;;4.50;;
4758;SDS011;2393;50.560;12.636;2024-03-23T01:33:15;8.93;;;4.07;;
4758;SDS011;2393;50.560;12.636;2024-03-23T01:35:42;9.33;;;4.70;;
4758;SDS011;2393;50.560;12.636;2024-03-23T01:38:08;5.83;;;4.33;;
4758;SDS011;2393;50.560;12.636;2024-03-23T01:40:35;6.20;;;4.40;;
4758;SDS011;2393;50.560;12.636;2024-03-23T01:43:03;6.40;;;3.57;;
4758;SDS011;2393;50.560;12.636;2024-03-23T01:45:33;5.23;;;3.43;;
4758;SDS011;2393;50.560;12.636;2024-03-23T01:47:59;5.43;;;4.03;;
4758;SDS011;2393;50.560;12.636;2024-03-23T01:50:27;5.20;;;3.90;;
4758;SDS011;2393;50.560;12.636;2024-03-23T01:52:54;4.70;;;3.43;;
4758;SDS011;2393;50.560;12.636;2024-03-23T01:55:21;9.03;;;4.40;;
4758;SDS011;2393;50.560;12.636;2024-03-23T01:57:47;4.80;;;3.80;;
4758;SDS011;2393;50.560;12.636;2024-03-23T02:00:16;3.23;;;2.93;;
4758;SDS011;2393;50.560;12.636;2024-03-23T02:02:44;4.03;;;3.37;;
4758;SDS011;2393;50.560;12.636;2024-03-23T02:05:12;9.60;;;4.43;;
4758;SDS011;2393;50.560;12.636;2024-03-23T02:07:39;5.53;;;3.33;;
4758;SDS011;2393;50.560;12.636;2024-03-23T02:10:09;3.40;;;3.10;;
4758;SDS011;2393;50.560;12.636;2024-03-23T02:12:36;11.03;;;4.17;;
4758;SDS011;2393;50.560;12.636;2024-03-23T02:15:03;5.60;;;3.17;;
4758;SDS011;2393;50.560;12.636;2024-03-23T02:17:30;4.60;;;3.30;;
4758;SDS011;2393;50.560;12.636;2024-03-23T02:20:02;11.40;;;4.20;;
4758;SDS011;2393;50.560;12.636;2024-03-23T02:22:35;4.70;;;3.10;;
4758;SDS011;2393;50.560;12.636;2024-03-23T02:25:04;7.47;;;3.80;;
4758;SDS011;2393;50.560;12.636;2024-03-23T02:27:32;12.03;;;4.83;;
4758;SDS011;2393;50.560;12.636;2024-03-23T02:30:01;7.60;;;4.80;;
4758;SDS011;2393;50.560;12.636;2024-03-23T02:32:27;8.00;;;4.67;;
4758;SDS011;2393;50.560;12.636;2024-03-23T02:34:54;6.83;;;5.30;;
4758;SDS011;2393;50.560;12.636;2024-03-23T02:37:20;6.70;;;4.67;;
4758;SDS011;2393;50.560;12.636;2024-03-23T02:39:47;7.27;;;4.60;;
4758;SDS011;2393;50.560;12.636;2024-03-23T02:42:15;8.93;;;5.13;;
4758;SDS011;2393;50.560;12.636;2024-03-23T02:44:43;13.40;;;4.77;;
4758;SDS011;2393;50.560;12.636;2024-03-23T02:47:10;8.90;;;4.83;;
4758;SDS011;2393;50.560;12.636;2024-03-23T02:49:36;8.07;;;4.77;;
4758;SDS011;2393;50.560;12.636;2024-03-23T02:52:03;6.83;;;4.70;;
4758;SDS011;2393;50.560;12.636;2024-03-23T02:54:30;9.80;;;5.60;;
4758;SDS011;2393;50.560;12.636;2024-03-23T02:56:56;7.10;;;4.80;;
4758;SDS011;2393;50.560;12.636;2024-03-23T02:59:25;18.57;;;6.17;;
4758;SDS011;2393;50.560;12.636;2024-03-23T03:01:51;8.03;;;5.17;;
4758;SDS011;2393;50.560;12.636;2024-03-23T03:04:18;11.53;;;5.50;;
4758;SDS011;2393;50.560;12.636;2024-03-23T03:06:46;8.00;;;4.97;;
4758;SDS011;2393;50.560;12.636;2024-03-23T03:09:13;11.50;;;5.60;;
4758;SDS011;2393;50.560;12.636;2024-03-23T03:11:40;8.90;;;4.80;;
4758;SDS011;2393;50.560;12.636;2024-03-23T03:14:07;9.23;;;6.00;;
4758;SDS011;2393;50.560;12.636;2024-03-23T03:16:35;6.37;;;4.73;;
4758;SDS011;2393;50.560;12.636;2024-03-23T03:19:02;4.73;;;4.33;;
4758;SDS011;2393;50.560;12.636;2024-03-23T03:21:28;8.00;;;5.10;;
4758;SDS011;2393;50.560;12.636;2024-03-23T03:23:55;7.37;;;4.97;;
4758;SDS011;2393;50.560;12.636;2024-03-23T03:26:22;7.30;;;5.23;;
4758;SDS011;2393;50.560;12.636;2024-03-23T03:28:51;16.37;;;5.87;;
4758;SDS011;2393;50.560;12.636;2024-03-23T03:31:17;10.73;;;5.33;;
4758;SDS011;2393;50.560;12.636;2024-03-23T03:33:46;8.60;;;5.43;;
4758;SDS011;2393;50.560;12.636;2024-03-23T03:36:12;9.70;;;5.77;;
4758;SDS011;2393;50.560;12.636;2024-03-23T03:38:39;10.50;;;5.00;;
4758;SDS011;2393;50.560;12.636;2024-03-23T03:41:05;5.00;;;4.50;;
4758;SDS011;2393;50.560;12.636;2024-03-23T03:43:32;10.43;;;5.40;;
4758;SDS011;2393;50.560;12.636;2024-03-23T03:45:59;11.53;;;5.20;;
4758;SDS011;2393;50.560;12.636;2024-03-23T03:48:27;5.03;;;4.37;;
4758;SDS011;2393;50.560;12.636;2024-03-23T03:50:55;9.97;;;5.67;;
4758;SDS011;2393;50.560;12.636;2024-03-23T03:53:22;12.10;;;6.70;;
4758;SDS011;2393;50.560;12.636;2024-03-23T03:55:48;10.47;;;4.70;;
4758;SDS011;2393;50.560;12.636;2024-03-23T03:58:15;9.93;;;5.77;;
4758;SDS011;2393;50.560;12.636;2024-03-23T04:00:41;7.50;;;5.40;;
4758;SDS011;2393;50.560;12.636;2024-03-23T04:03:08;5.83;;;4.70;;
4758;SDS011;2393;50.560;12.636;2024-03-23T04:05:34;10.70;;;5.33;;
4758;SDS011;2393;50.560;12.636;2024-03-23T04:08:03;6.53;;;4.50;;
4758;SDS011;2393;50.560;12.636;2024-03-23T04:10:29;7.33;;;4.67;;
4758;SDS011;2393;50.560;12.636;2024-03-23T04:12:57;7.90;;;6.07;;
4758;SDS011;2393;50.560;12.636;2024-03-23T04:15:23;12.60;;;6.37;;
4758;SDS011;2393;50.560;12.636;2024-03-23T04:17:50;9.37;;;6.17;;
4758;SDS011;2393;50.560;12.636;2024-03-23T04:20:16;6.70;;;4.93;;
4758;SDS011;2393;50.560;12.636;2024-03-23T04:22:43;8.43;;;5.87;;
4758;SDS011;2393;50.560;12.636;2024-03-23T04:25:11;7.23;;;4.70;;
4758;SDS011;2393;50.560;12.636;2024-03-23T04:27:38;8.47;;;5.50;;
4758;SDS011;2393;50.560;12.636;2024-03-23T04:30:06;5.60;;;4.63;;
4758;SDS011;2393;50.560;12.636;2024-03-23T04:32:36;11.23;;;4.80;;
4758;SDS011;2393;50.560;12.636;2024-03-23T04:35:03;7.93;;;5.00;;
4758;SDS011;2393;50.560;12.636;2024-03-23T04:37:31;7.30;;;5.57;;
4758;SDS011;2393;50.560;12.636;2024-03-23T04:39:59;4.70;;;4.20;;
4758;SDS011;2393;50.560;12.636;2024-03-23T04:42:28;12.23;;;5.20;;
4758;SDS011;2393;50.560;12.636;2024-03-23T04:44:55;12.00;;;5.20;;
4758;SDS011;2393;50.560;12.636;2024-03-23T04:47:22;8.63;;;4.47;;
4758;SDS011;2393;50.560;12.636;2024-03-23T04:49:49;8.30;;;4.50;;
4758;SDS011;2393;50.560;12.636;2024-03-23T04:52:17;9.90;;;5.00;;
4758;SDS011;2393;50.560;12.636;2024-03-23T04:54:44;5.67;;;4.50;;
4758;SDS011;2393;50.560;12.636;2024-03-23T04:57:11;6.17;;;4.30;;
4758;SDS011;2393;50.560;12.636;2024-03-23T04:59:47;6.57;;;4.80;;
4758;SDS011;2393;50.560;12.636;2024-03-23T05:02:14;4.10;;;3.67;;
4758;SDS011;2393;50.560;12.636;2024-03-23T05:04:40;4.60;;;4.10;;
4758;SDS011;2393;50.560;12.636;2024-03-23T05:07:07;4.70;;;3.43;;
4758;SDS011;2393;50.560;12.636;2024-03-23T05:09:33;8.33;;;4.30;;
4758;SDS011;2393;50.560;12.636;2024-03-23T05:12:00;5.50;;;4.40;;
4758;SDS011;2393;50.560;12.636;2024-03-23T05:14:27;8.03;;;4.37;;
4758;SDS011;2393;50.560;12.636;2024-03-23T05:16:55;4.40;;;3.97;;
4758;SDS011;2393;50.560;12.636;2024-03-23T05:19:21;7.10;;;4.10;;
4758;SDS011;2393;50.560;12.636;2024-03-23T05:21:48;4.70;;;3.83;;
4758;SDS011;2393;50.560;12.636;2024-03-23T05:24:15;3.73;;;3.43;;
4758;SDS011;2393;50.560;12.636;2024-03-23T05:26:42;6.00;;;4.00;;
4758;SDS011;2393;50.560;12.636;2024-03-23T05:29:08;5.13;;;3.73;;
4758;SDS011;2393;50.560;12.636;2024-03-23T05:31:38;15.57;;;5.73;;
4758;SDS011;2393;50.560;12.636;2024-03-23T05:34:08;11.73;;;6.50;;
4758;SDS011;2393;50.560;12.636;2024-03-23T05:36:35;11.63;;;6.17;;
4758;SDS011;2393;50.560;12.636;2024-03-23T05:39:01;11.43;;;6.97;;
4758;SDS011;2393;50.560;12.636;2024-03-23T05:41:28;15.00;;;6.50;;
4758;SDS011;2393;50.560;12.636;2024-03-23T05:43:54;10.13;;;6.03;;
4758;SDS011;2393;50.560;12.636;2024-03-23T05:46:21;7.47;;;5.40;;
4758;SDS011;2393;50.560;12.636;2024-03-23T05:48:47;10.90;;;5.60;;
4758;SDS011;2393;50.560;12.636;2024-03-23T05:51:16;13.70;;;5.33;;
4758;SDS011;2393;50.560;12.636;2024-03-23T05:53:42;16.23;;;7.00;;
4758;SDS011;2393;50.560;12.636;2024-03-23T05:56:09;9.70;;;6.00;;
4758;SDS011;2393;50.560;12.636;2024-03-23T05:58:35;13.27;;;6.33;;
4758;SDS011;2393;50.560;12.636;2024-03-23T06:01:03;14.03;;;7.33;;
4758;SDS011;2393;50.560;12.636;2024-03-23T06:03:29;14.27;;;8.20;;
4758;SDS011;2393;50.560;12.636;2024-03-23T06:05:56;11.57;;;7.13;;
4758;SDS011;2393;50.560;12.636;2024-03-23T06:08:23;14.10;;;8.67;;
4758;SDS011;2393;50.560;12.636;2024-03-23T06:10:50;11.80;;;8.50;;
4758;SDS011;2393;50.560;12.636;2024-03-23T06:13:17;13.13;;;7.37;;
4758;SDS011;2393;50.560;12.636;2024-03-23T06:15:44;18.47;;;7.47;;
4758;SDS011;2393;50.560;12.636;2024-03-23T06:18:12;11.43;;;7.40;;
4758;SDS011;2393;50.560;12.636;2024-03-23T06:20:39;12.23;;;7.30;;
4758;SDS011;2393;50.560;12.636;2024-03-23T06:23:05;12.60;;;6.87;;
4758;SDS011;2393;50.560;12.636;2024-03-23T06:25:34;7.97;;;5.90;;
4758;SDS011;2393;50.560;12.636;2024-03-23T06:28:00;11.50;;;5.80;;
4758;SDS011;2393;50.560;12.636;2024-03-23T06:30:28;12.87;;;5.90;;
4758;SDS011;2393;50.560;12.636;2024-03-23T06:32:55;7.47;;;5.33;;
4758;SDS011;2393;50.560;12.636;2024-03-23T06:35:22;7.10;;;4.80;;
4758;SDS011;2393;50.560;12.636;2024-03-23T06:37:48;8.83;;;4.83;;
4758;SDS011;2393;50.560;12.636;2024-03-23T06:40:15;5.63;;;4.03;;
4758;SDS011;2393;50.560;12.636;2024-03-23T06:42:42;11.17;;;5.07;;
4758;SDS011;2393;50.560;12.636;2024-03-23T06:45:09;7.33;;;3.97;;
4758;SDS011;2393;50.560;12.636;2024-03-23T06:47:35;5.40;;;4.17;;
4758;SDS011;2393;50.560;12.636;2024-03-23T06:50:03;5.80;;;4.20;;
4758;SDS011;2393;50.560;12.636;2024-03-23T06:52:30;4.57;;;3.43;;
4758;SDS011;2393;50.560;12.636;2024-03-23T06:54:57;5.93;;;3.97;;
4758;SDS011;2393;50.560;12.636;2024-03-23T06:57:23;7.40;;;4.47;;
4758;SDS011;2393;50.560;12.636;2024-03-23T06:59:51;4.27;;;3.37;;
4758;SDS011;2393;50.560;12.636;2024-03-23T07:02:18;3.83;;;3.50;;
4758;SDS011;2393;50.560;12.636;2024-03-23T07:04:45;6.03;;;3.57;;
4758;SDS011;2393;50.560;12.636;2024-03-23T07:07:11;4.83;;;3.20;;
4758;SDS011;2393;50.560;12.636;2024-03-23T07:09:38;4.90;;;4.17;;
4758;SDS011;2393;50.560;12.636;2024-03-23T07:12:04;7.00;;;4.37;;
4758;SDS011;2393;50.560;12.636;2024-03-23T07:14:31;6.30;;;5.57;;
4758;SDS011;2393;50.560;12.636;2024-03-23T07:16:59;6.33;;;4.30;;
4758;SDS011;2393;50.560;12.636;2024-03-23T07:19:26;5.93;;;4.83;;
4758;SDS011;2393;50.560;12.636;2024-03-23T07:21:53;6.57;;;4.33;;
4758;SDS011;2393;50.560;12.636;2024-03-23T07:24:21;6.87;;;4.27;;
4758;SDS011;2393;50.560;12.636;2024-03-23T07:26:47;8.97;;;5.27;;
4758;SDS011;2393;50.560;12.636;2024-03-23T07:29:15;6.90;;;5.00;;
4758;SDS011;2393;50.560;12.636;2024-03-23T07:31:41;5.97;;;4.13;;
4758;SDS011;2393;50.560;12.636;2024-03-23T07:34:10;8.00;;;4.30;;
4758;SDS011;2393;50.560;12.636;2024-03-23T07:36:36;6.20;;;4.57;;
4758;SDS011;2393;50.560;12.636;2024-03-23T07:39:03;8.73;;;4.40;;
4758;SDS011;2393;50.560;12.636;2024-03-23T07:41:29;7.00;;;5.37;;
4758;SDS011;2393;50.560;12.636;2024-03-23T07:43:58;4.90;;;4.40;;
4758;SDS011;2393;50.560;12.636;2024-03-23T07:46:24;5.73;;;4.30;;
4758;SDS011;2393;50.560;12.636;2024-03-23T07:48:51;4.43;;;3.97;;
4758;SDS011;2393;50.560;12.636;2024-03-23T07:51:20;5.60;;;4.00;;
4758;SDS011;2393;50.560;12.636;2024-03-23T07:53:48;5.43;;;4.20;;
4758;SDS011;2393;50.560;12.636;2024-03-23T07:56:14;8.33;;;4.60;;
4758;SDS011;2393;50.560;12.636;2024-03-23T07:58:43;6.40;;;4.80;;
4758;SDS011;2393;50.560;12.636;2024-03-23T08:01:10;7.17;;;5.27;;
4758;SDS011;2393;50.560;12.636;2024-03-23T08:03:38;11.30;;;6.87;;
4758;SDS011;2393;50.560;12.636;2024-03-23T08:06:06;9.20;;;5.37;;
4758;SDS011;2393;50.560;12.636;2024-03-23T08:08:35;11.43;;;5.40;;
4758;SDS011;2393;50.560;12.636;2024-03-23T08:11:01;9.43;;;5.80;;
4758;SDS011;2393;50.560;12.636;2024-03-23T08:13:29;12.50;;;6.83;;
4758;SDS011;2393;50.560;12.636;2024-03-23T08:15:59;7.10;;;4.87;;
4758;SDS011;2393;50.560;12.636;2024-03-23T08:18:26;9.30;;;6.23;;
4758;SDS011;2393;50.560;12.636;2024-03-23T08:20:56;14.07;;;7.17;;
4758;SDS011;2393;50.560;12.636;2024-03-23T08:23:23;12.87;;;6.30;;
4758;SDS011;2393;50.560;12.636;2024-03-23T08:25:51;5.13;;;4.70;;
4758;SDS011;2393;50.560;12.636;2024-03-23T08:28:18;10.17;;;6.40;;
4758;SDS011;2393;50.560;12.636;2024-03-23T08:30:45;10.37;;;6.60;;
4758;SDS011;2393;50.560;12.636;2024-03-23T08:33:12;10.80;;;6.50;;
4758;SDS011;2393;50.560;12.636;2024-03-23T08:35:40;8.37;;;5.80;;
4758;SDS011;2393;50.560;12.636;2024-03-23T08:38:07;9.63;;;5.77;;
4758;SDS011;2393;50.560;12.636;2024-03-23T08:40:33;8.47;;;5.90;;
4758;SDS011;2393;50.560;12.636;2024-03-23T08:43:02;12.23;;;6.63;;
4758;SDS011;2393;50.560;12.636;2024-03-23T08:45:28;16.30;;;5.83;;
4758;SDS011;2393;50.560;12.636;2024-03-23T08:47:56;9.30;;;5.43;;
4758;SDS011;2393;50.560;12.636;2024-03-23T08:50:22;9.63;;;5.63;;
4758;SDS011;2393;50.560;12.636;2024-03-23T08:52:50;11.00;;;6.70;;
4758;SDS011;2393;50.560;12.636;2024-03-23T08:55:16;11.80;;;6.20;;
4758;SDS011;2393;50.560;12.636;2024-03-23T08:57:43;10.70;;;6.80;;
4758;SDS011;2393;50.560;12.636;2024-03-23T09:00:11;11.17;;;6.13;;
4758;SDS011;2393;50.560;12.636;2024-03-23T09:02:39;13.77;;;6.43;;
4758;SDS011;2393;50.560;12.636;2024-03-23T09:05:06;12.33;;;6.33;;
4758;SDS011;2393;50.560;12.636;2024-03-23T09:07:34;10.57;;;6.27;;
4758;SDS011;2393;50.560;12.636;2024-03-23T09:10:00;7.93;;;5.60;;
4758;SDS011;2393;50.560;12.636;2024-03-23T09:12:27;9.10;;;5.47;;
4758;SDS011;2393;50.560;12.636;2024-03-23T09:14:53;9.83;;;5.97;;
4758;SDS011;2393;50.560;12.636;2024-03-23T09:17:21;11.23;;;5.80;;
4758;SDS011;2393;50.560;12.636;2024-03-23T09:19:47;3.93;;;3.60;;
4758;SDS011;2393;50.560;12.636;2024-03-23T09:22:14;2.57;;;2.10;;
4758;SDS011;2393;50.560;12.636;2024-03-23T09:24:40;2.87;;;2.43;;
4758;SDS011;2393;50.560;12.636;2024-03-23T09:27:07;1.60;;;1.50;;
4758;SDS011;2393;50.560;12.636;2024-03-23T09:29:33;5.87;;;1.90;;
4758;SDS011;2393;50.560;12.636;2024-03-23T09:32:00;1.90;;;1.80;;
4758;SDS011;2393;50.560;12.636;2024-03-23T09:34:28;2.13;;;2.00;;
4758;SDS011;2393;50.560;12.636;2024-03-23T09:36:55;1.47;;;1.40;;
4758;SDS011;2393;50.560;12.636;2024-03-23T09:39:21;1.90;;;1.80;;
4758;SDS011;2393;50.560;12.636;2024-03-23T09:41:48;1.73;;;1.63;;
4758;SDS011;2393;50.560;12.636;2024-03-23T09:44:14;1.20;;;1.20;;
4758;SDS011;2393;50.560;12.636;2024-03-23T09:46:41;1.10;;;1.10;;
4758;SDS011;2393;50.560;12.636;2024-03-23T09:49:07;1.38;;;1.20;;
4758;SDS011;2393;50.560;12.636;2024-03-23T09:51:36;2.43;;;1.30;;
4758;SDS011;2393;50.560;12.636;2024-03-23T09:54:03;1.08;;;1.08;;
4758;SDS011;2393;50.560;12.636;2024-03-23T09:56:30;1.17;;;0.70;;
4758;SDS011;2393;50.560;12.636;2024-03-23T09:59:02;0.50;;;0.50;;
4758;SDS011;2393;50.560;12.636;2024-03-23T10:01:29;0.65;;;0.60;;
4758;SDS011;2393;50.560;12.636;2024-03-23T10:03:55;0.52;;;0.52;;
4758;SDS011;2393;50.560;12.636;2024-03-23T10:06:23;2.45;;;0.60;;
4758;SDS011;2393;50.560;12.636;2024-03-23T10:08:51;0.60;;;0.50;;
4758;SDS011;2393;50.560;12.636;2024-03-23T10:11:20;0.65;;;0.65;;
4758;SDS011;2393;50.560;12.636;2024-03-23T10:13:46;0.80;;;0.57;;
4758;SDS011;2393;50.560;12.636;2024-03-23T10:16:20;0.60;;;0.40;;
4758;SDS011;2393;50.560;12.636;2024-03-23T10:18:47;0.63;;;0.63;;
4758;SDS011;2393;50.560;12.636;2024-03-23T10:21:15;0.40;;;0.40;;
4758;SDS011;2393;50.560;12.636;2024-03-23T10:23:42;0.60;;;0.60;;
4758;SDS011;2393;50.560;12.636;2024-03-23T10:26:15;1.92;;;0.60;;
4758;SDS011;2393;50.560;12.636;2024-03-23T10:28:50;0.30;;;0.30;;
4758;SDS011;2393;50.560;12.636;2024-03-23T10:31:18;0.30;;;0.30;;
4758;SDS011;2393;50.560;12.636;2024-03-23T10:33:45;1.80;;;0.70;;
4758;SDS011;2393;50.560;12.636;2024-03-23T10:36:12;0.30;;;0.30;;
4758;SDS011;2393;50.560;12.636;2024-03-23T10:38:40;0.38;;;0.35;;
4758;SDS011;2393;50.560;12.636;2024-03-23T10:41:08;0.50;;;0.38;;
4758;SDS011;2393;50.560;12.636;2024-03-23T10:43:37;0.50;;;0.50;;
4758;SDS011;2393;50.560;12.636;2024-03-23T10:46:05;0.30;;;0.30;;
4758;SDS011;2393;50.560;12.636;2024-03-23T10:48:32;0.47;;;0.47;;
4758;SDS011;2393;50.560;12.636;2024-03-23T10:50:59;0.55;;;0.40;;
4758;SDS011;2393;50.560;12.636;2024-03-23T10:53:25;0.77;;;0.50;;
4758;SDS011;2393;50.560;12.636;2024-03-23T10:55:53;0.43;;;0.43;;
4758;SDS011;2393;50.560;12.636;2024-03-23T10:58:21;0.40;;;0.40;;
4758;SDS011;2393;50.560;12.636;2024-03-23T11:00:54;0.33;;;0.33;;
4758;SDS011;2393;50.560;12.636;2024-03-23T11:03:30;0.40;;;0.40;;
4758;SDS011;2393;50.560;12.636;2024-03-23T11:05:58;0.30;;;0.30;;
4758;SDS011;2393;50.560;12.636;2024-03-23T11:08:32;0.30;;;0.30;;
4758;SDS011;2393;50.560;12.636;2024-03-23T11:11:19;0.50;;;0.50;;
4758;SDS011;2393;50.560;12.636;2024-03-23T11:13:47;0.50;;;0.50;;
4758;SDS011;2393;50.560;12.636;2024-03-23T11:16:17;0.30;;;0.30;;
4758;SDS011;2393;50.560;12.636;2024-03-23T11:18:48;0.53;;;0.40;;
4758;SDS011;2393;50.560;12.636;2024-03-23T11:24:17;0.30;;;0.30;;
4758;SDS011;2393;50.560;12.636;2024-03-23T11:26:45;0.30;;;0.30;;
4758;SDS011;2393;50.560;12.636;2024-03-23T11:29:11;0.30;;;0.30;;
4758;SDS011;2393;50.560;12.636;2024-03-23T11:31:41;0.90;;;0.90;;
4758;SDS011;2393;50.560;12.636;2024-03-23T11:34:11;2.63;;;2.40;;
4758;SDS011;2393;50.560;12.636;2024-03-23T11:36:38;3.53;;;1.10;;
4758;SDS011;2393;50.560;12.636;2024-03-23T11:39:11;0.50;;;0.50;;
4758;SDS011;2393;50.560;12.636;2024-03-23T11:41:46;0.50;;;0.50;;
4758;SDS011;2393;50.560;12.636;2024-03-23T11:44:16;0.50;;;0.30;;
4758;SDS011;2393;50.560;12.636;2024-03-23T11:46:45;0.90;;;0.50;;
4758;SDS011;2393;50.560;12.636;2024-03-23T11:49:22;0.40;;;0.40;;
4758;SDS011;2393;50.560;12.636;2024-03-23T11:51:49;0.50;;;0.50;;
4758;SDS011;2393;50.560;12.636;2024-03-23T11:54:19;0.50;;;0.50;;
4758;SDS011;2393;50.560;12.636;2024-03-23T11:56:56;1.20;;;0.97;;
4758;SDS011;2393;50.560;12.636;2024-03-23T11:59:30;1.40;;;1.38;;
4758;SDS011;2393;50.560;12.636;2024-03-23T12:01:59;0.60;;;0.60;;
4758;SDS011;2393;50.560;12.636;2024-03-23T12:04:26;0.55;;;0.55;;
4758;SDS011;2393;50.560;12.636;2024-03-23T12:07:08;0.50;;;0.50;;
4758;SDS011;2393;50.560;12.636;2024-03-23T12:09:35;0.50;;;0.50;;
4758;SDS011;2393;50.560;12.636;2024-03-23T12:12:10;2.70;;;0.60;;
4758;SDS011;2393;50.560;12.636;2024-03-23T12:14:38;0.63;;;0.55;;
4758;SDS011;2393;50.560;12.636;2024-03-23T12:17:11;1.08;;;1.08;;
4758;SDS011;2393;50.560;12.636;2024-03-23T12:19:37;5.80;;;0.80;;
4758;SDS011;2393;50.560;12.636;2024-03-23T12:22:05;2.13;;;0.83;;
4758;SDS011;2393;50.560;12.636;2024-03-23T12:24:33;0.70;;;0.70;;
4758;SDS011;2393;50.560;12.636;2024-03-23T12:27:01;0.90;;;0.70;;
4758;SDS011;2393;50.560;12.636;2024-03-23T12:29:28;5.88;;;1.40;;
4758;SDS011;2393;50.560;12.636;2024-03-23T12:31:58;1.30;;;1.20;;
4758;SDS011;2393;50.560;12.636;2024-03-23T12:34:26;2.47;;;1.58;;
4758;SDS011;2393;50.560;12.636;2024-03-23T12:36:54;6.22;;;1.23;;
4758;SDS011;2393;50.560;12.636;2024-03-23T12:39:20;3.00;;;1.30;;
4758;SDS011;2393;50.560;12.636;2024-03-23T12:41:47;4.07;;;1.20;;
4758;SDS011;2393;50.560;12.636;2024-03-23T12:44:14;7.50;;;1.30;;
4758;SDS011;2393;50.560;12.636;2024-03-23T12:46:46;6.53;;;1.57;;
4758;SDS011;2393;50.560;12.636;2024-03-23T12:49:12;5.97;;;2.97;;
4758;SDS011;2393;50.560;12.636;2024-03-23T12:51:41;2.77;;;1.30;;
4758;SDS011;2393;50.560;12.636;2024-03-23T12:54:18;5.77;;;1.47;;
4758;SDS011;2393;50.560;12.636;2024-03-23T12:56:46;2.20;;;0.87;;
4758;SDS011;2393;50.560;12.636;2024-03-23T12:59:12;6.10;;;0.90;;
4758;SDS011;2393;50.560;12.636;2024-03-23T13:01:40;2.50;;;1.27;;
4758;SDS011;2393;50.560;12.636;2024-03-23T13:04:07;3.67;;;1.27;;
4758;SDS011;2393;50.560;12.636;2024-03-23T13:06:34;1.50;;;1.40;;
4758;SDS011;2393;50.560;12.636;2024-03-23T13:09:02;1.97;;;1.17;;
4758;SDS011;2393;50.560;12.636;2024-03-23T13:11:30;5.80;;;1.97;;
4758;SDS011;2393;50.560;12.636;2024-03-23T13:13:56;2.10;;;2.00;;
4758;SDS011;2393;50.560;12.636;2024-03-23T13:16:23;4.27;;;1.37;;
4758;SDS011;2393;50.560;12.636;2024-03-23T13:18:50;3.57;;;2.00;;
4758;SDS011;2393;50.560;12.636;2024-03-23T13:21:17;1.27;;;1.17;;
4758;SDS011;2393;50.560;12.636;2024-03-23T13:23:45;4.10;;;1.07;;
4758;SDS011;2393;50.560;12.636;2024-03-23T13:26:15;3.80;;;1.60;;
4758;SDS011;2393;50.560;12.636;2024-03-23T13:28:41;6.53;;;1.10;;
4758;SDS011;2393;50.560;12.636;2024-03-23T13:31:08;4.63;;;1.10;;
4758;SDS011;2393;50.560;12.636;2024-03-23T13:33:34;3.57;;;0.97;;
4758;SDS011;2393;50.560;12.636;2024-03-23T13:36:01;2.40;;;1.40;;
4758;SDS011;2393;50.560;12.636;2024-03-23T13:38:28;2.63;;;1.20;;
4758;SDS011;2393;50.560;12.636;2024-03-23T13:40:56;10.60;;;1.33;;
4758;SDS011;2393;50.560;12.636;2024-03-23T13:43:25;3.33;;;1.40;;
4758;SDS011;2393;50.560;12.636;2024-03-23T13:45:54;6.97;;;2.27;;
4758;SDS011;2393;50.560;12.636;2024-03-23T13:48:21;4.07;;;2.20;;
4758;SDS011;2393;50.560;12.636;2024-03-23T13:50:56;4.50;;;1.87;;
4758;SDS011;2393;50.560;12.636;2024-03-23T13:53:24;1.63;;;1.50;;
4758;SDS011;2393;50.560;12.636;2024-03-23T13:55:51;4.97;;;1.90;;
4758;SDS011;2393;50.560;12.636;2024-03-23T13:58:17;15.17;;;2.37;;
4758;SDS011;2393;50.560;12.636;2024-03-23T14:00:45;6.20;;;1.70;;
4758;SDS011;2393;50.560;12.636;2024-03-23T14:03:12;1.80;;;1.70;;
4758;SDS011;2393;50.560;12.636;2024-03-23T14:05:40;6.20;;;1.93;;
4758;SDS011;2393;50.560;12.636;2024-03-23T14:08:06;11.03;;;2.23;;
4758;SDS011;2393;50.560;12.636;2024-03-23T14:10:34;1.90;;;1.60;;
4758;SDS011;2393;50.560;12.636;2024-03-23T14:13:01;2.33;;;2.00;;
4758;SDS011;2393;50.560;12.636;2024-03-23T14:15:28;12.50;;;2.27;;
4758;SDS011;2393;50.560;12.636;2024-03-23T14:17:57;1.43;;;1.33;;
4758;SDS011;2393;50.560;12.636;2024-03-23T14:20:24;8.87;;;1.70;;
4758;SDS011;2393;50.560;12.636;2024-03-23T14:22:51;2.50;;;1.90;;
4758;SDS011;2393;50.560;12.636;2024-03-23T14:25:18;1.90;;;1.30;;
4758;SDS011;2393;50.560;12.636;2024-03-23T14:27:44;1.40;;;1.30;;
4758;SDS011;2393;50.560;12.636;2024-03-23T14:30:12;2.63;;;0.90;;
4758;SDS011;2393;50.560;12.636;2024-03-23T14:32:39;3.50;;;1.10;;
4758;SDS011;2393;50.560;12.636;2024-03-23T14:35:08;1.10;;;1.00;;
4758;SDS011;2393;50.560;12.636;2024-03-23T14:37:36;5.47;;;0.93;;
4758;SDS011;2393;50.560;12.636;2024-03-23T14:40:04;0.80;;;0.80;;
4758;SDS011;2393;50.560;12.636;2024-03-23T14:42:31;5.40;;;1.20;;
4758;SDS011;2393;50.560;12.636;2024-03-23T14:44:58;1.60;;;1.00;;
4758;SDS011;2393;50.560;12.636;2024-03-23T14:47:25;1.47;;;1.00;;
4758;SDS011;2393;50.560;12.636;2024-03-23T14:49:52;1.70;;;1.17;;
4758;SDS011;2393;50.560;12.636;2024-03-23T14:52:19;1.63;;;1.07;;
4758;SDS011;2393;50.560;12.636;2024-03-23T14:54:48;3.63;;;1.07;;
4758;SDS011;2393;50.560;12.636;2024-03-23T14:57:14;3.50;;;0.53;;
4758;SDS011;2393;50.560;12.636;2024-03-23T14:59:44;1.43;;;0.90;;
4758;SDS011;2393;50.560;12.636;2024-03-23T15:02:10;1.53;;;0.70;;
4758;SDS011;2393;50.560;12.636;2024-03-23T15:04:38;0.97;;;0.87;;
4758;SDS011;2393;50.560;12.636;2024-03-23T15:07:07;0.73;;;0.57;;
4758;SDS011;2393;50.560;12.636;2024-03-23T15:09:36;0.80;;;0.60;;
4758;SDS011;2393;50.560;12.636;2024-03-23T15:12:02;5.20;;;2.10;;
4758;SDS011;2393;50.560;12.636;2024-03-23T15:14:29;3.67;;;1.20;;
4758;SDS011;2393;50.560;12.636;2024-03-23T15:16:55;1.97;;;1.13;;
4758;SDS011;2393;50.560;12.636;2024-03-23T15:19:22;3.93;;;1.60;;
4758;SDS011;2393;50.560;12.636;2024-03-23T15:21:48;1.60;;;1.50;;
4758;SDS011;2393;50.560;12.636;2024-03-23T15:24:17;3.50;;;1.13;;
4758;SDS011;2393;50.560;12.636;2024-03-23T15:26:44;6.77;;;0.87;;
4758;SDS011;2393;50.560;12.636;2024-03-23T15:29:11;1.57;;;0.50;;
4758;SDS011;2393;50.560;12.636;2024-03-23T15:31:42;4.07;;;1.10;;
4758;SDS011;2393;50.560;12.636;2024-03-23T15:34:09;2.10;;;0.80;;
4758;SDS011;2393;50.560;12.636;2024-03-23T15:36:37;0.40;;;0.40;;
4758;SDS011;2393;50.560;12.636;2024-03-23T15:39:04;1.30;;;0.63;;
4758;SDS011;2393;50.560;12.636;2024-03-23T15:41:30;0.77;;;0.40;;
4758;SDS011;2393;50.560;12.636;2024-03-23T15:44:00;0.90;;;0.90;;
4758;SDS011;2393;50.560;12.636;2024-03-23T15:46:26;2.57;;;0.70;;
4758;SDS011;2393;50.560;12.636;2024-03-23T15:48:53;4.53;;;0.90;;
4758;SDS011;2393;50.560;12.636;2024-03-23T15:51:20;1.03;;;0.70;;
4758;SDS011;2393;50.560;12.636;2024-03-23T15:53:47;1.43;;;0.60;;
4758;SDS011;2393;50.560;12.636;2024-03-23T15:56:13;1.70;;;1.47;;